createdAt,value
2019-02-20T00:00:07.937Z,3.52
2019-02-20T00:02:35.393Z,6.62
2019-02-20T00:05:02.944Z,5.53
2019-02-20T00:07:30.371Z,5.83
2019-02-20T00:09:57.928Z,5.60
2019-02-20T00:12:25.389Z,4.85
2019-02-20T00:14:53.108Z,6.40
2019-02-20T00:17:20.783Z,8.05
2019-02-20T00:19:48.472Z,9.70
2019-02-20T00:22:16.217Z,7.92
2019-02-20T00:24:43.704Z,4.42
2019-02-20T00:27:11.162Z,6.05
2019-02-20T00:29:38.696Z,6.58
2019-02-20T00:32:06.696Z,5.95
2019-02-20T00:34:34.097Z,9.65
2019-02-20T00:37:01.782Z,5.10
2019-02-20T00:39:29.233Z,6.15
2019-02-20T00:41:56.660Z,5.53
2019-02-20T00:44:36.822Z,7.33
2019-02-20T00:47:26.691Z,4.12
2019-02-20T00:49:54.620Z,5.08
2019-02-20T00:52:35.510Z,4.85
2019-02-20T00:55:03.070Z,5.65
2019-02-20T00:57:30.503Z,4.87
2019-02-20T00:59:57.901Z,5.80
2019-02-20T01:02:25.278Z,5.03
2019-02-20T01:04:52.638Z,4.42
2019-02-20T01:07:20.195Z,4.42
2019-02-20T01:09:47.551Z,6.90
2019-02-20T01:12:15.078Z,4.42
2019-02-20T01:14:42.459Z,3.85
2019-02-20T01:17:09.935Z,4.97
2019-02-20T01:19:37.390Z,3.72
2019-02-20T01:22:05.094Z,4.42
2019-02-20T01:24:32.605Z,6.28
2019-02-20T01:27:00.510Z,3.05
2019-02-20T01:29:28.342Z,4.58
2019-02-20T01:31:55.763Z,3.98
2019-02-20T01:34:23.796Z,4.45
2019-02-20T01:36:51.430Z,5.17
2019-02-20T01:39:18.922Z,6.35
2019-02-20T01:41:46.644Z,4.80
2019-02-20T01:44:14.261Z,5.20
2019-02-20T01:46:41.695Z,3.45
2019-02-20T01:49:09.196Z,4.30
2019-02-20T01:51:36.880Z,4.75
2019-02-20T01:54:04.368Z,4.03
2019-02-20T01:56:31.825Z,4.78
2019-02-20T01:58:59.231Z,6.03
2019-02-20T02:01:26.780Z,7.17
2019-02-20T02:03:54.166Z,4.90
2019-02-20T02:06:21.772Z,3.35
2019-02-20T02:08:49.236Z,3.87
2019-02-20T02:11:16.682Z,4.47
2019-02-20T02:13:44.150Z,4.42
2019-02-20T02:16:11.566Z,3.22
2019-02-20T02:18:39.011Z,6.05
2019-02-20T02:21:06.765Z,5.53
2019-02-20T02:23:34.500Z,7.60
2019-02-20T02:26:10.505Z,7.37
2019-02-20T02:28:31.316Z,5.90
2019-02-20T02:30:58.783Z,3.80
2019-02-20T02:33:26.611Z,7.92
2019-02-20T02:35:54.039Z,5.72
2019-02-20T02:38:21.929Z,3.87
2019-02-20T02:40:49.363Z,4.05
2019-02-20T02:43:16.697Z,5.17
2019-02-20T02:45:44.114Z,4.67
2019-02-20T02:48:11.586Z,10.45
2019-02-20T02:50:39.074Z,5.72
2019-02-20T02:53:06.600Z,7.67
2019-02-20T02:55:34.274Z,4.83
2019-02-20T02:58:02.066Z,9.15
2019-02-20T03:00:29.531Z,6.42
2019-02-20T03:02:56.966Z,4.78
2019-02-20T03:05:24.673Z,5.67
2019-02-20T03:07:52.159Z,3.12
2019-02-20T03:10:19.703Z,4.60
2019-02-20T03:12:47.187Z,3.90
2019-02-20T03:15:14.677Z,5.15
2019-02-20T03:17:42.167Z,5.55
2019-02-20T03:20:09.700Z,4.78
2019-02-20T03:22:37.298Z,5.62
2019-02-20T03:25:04.898Z,6.70
2019-02-20T03:27:32.457Z,6.00
2019-02-20T03:29:59.969Z,7.80
2019-02-20T03:32:27.447Z,8.83
2019-02-20T03:34:55.011Z,7.35
2019-02-20T03:37:22.511Z,5.30
2019-02-20T03:39:50.261Z,5.08
2019-02-20T03:42:17.984Z,4.40
2019-02-20T03:44:45.498Z,6.25
2019-02-20T03:47:12.978Z,4.75
2019-02-20T03:49:40.418Z,5.15
2019-02-20T03:52:08.022Z,5.42
2019-02-20T03:54:35.594Z,5.97
2019-02-20T03:57:03.414Z,5.28
2019-02-20T03:59:31.014Z,5.10
2019-02-20T04:01:59.074Z,6.00
2019-02-20T04:04:26.564Z,4.33
2019-02-20T04:06:54.386Z,6.62
2019-02-20T04:09:21.910Z,6.08
2019-02-20T04:11:49.680Z,9.63
2019-02-20T04:14:17.182Z,6.12
2019-02-20T04:16:45.053Z,4.35
2019-02-20T04:19:12.457Z,4.45
2019-02-20T04:21:39.940Z,6.28
2019-02-20T04:24:07.673Z,7.47
2019-02-20T04:26:37.870Z,6.00
2019-02-20T04:29:05.328Z,5.85
2019-02-20T04:31:32.749Z,3.25
2019-02-20T04:34:00.095Z,5.92
2019-02-20T04:36:27.837Z,5.20
2019-02-20T04:38:55.693Z,5.53
2019-02-20T04:41:23.363Z,4.72
2019-02-20T04:43:50.724Z,5.60
2019-02-20T04:46:18.157Z,4.62
2019-02-20T04:48:45.557Z,6.90
2019-02-20T04:51:12.963Z,8.73
2019-02-20T04:53:40.486Z,6.42
2019-02-20T04:56:08.001Z,7.83
2019-02-20T04:58:35.595Z,7.00
2019-02-20T05:01:03.013Z,6.10
2019-02-20T05:03:30.501Z,4.30
2019-02-20T05:05:58.201Z,5.40
2019-02-20T05:08:25.945Z,6.65
2019-02-20T05:10:53.785Z,5.83
2019-02-20T05:13:21.252Z,6.92
2019-02-20T05:15:48.621Z,6.42
2019-02-20T05:18:16.011Z,5.30
2019-02-20T05:20:43.509Z,6.60
2019-02-20T05:23:10.928Z,3.70
2019-02-20T05:25:38.442Z,6.25
2019-02-20T05:28:06.462Z,6.70
2019-02-20T05:30:33.939Z,9.00
2019-02-20T05:33:01.406Z,5.80
2019-02-20T05:35:29.240Z,6.00
2019-02-20T05:37:56.678Z,8.85
2019-02-20T05:40:24.755Z,13.38
2019-02-20T05:42:52.107Z,7.85
2019-02-20T05:45:19.604Z,8.25
2019-02-20T05:47:47.053Z,6.37
2019-02-20T05:50:14.648Z,6.50
2019-02-20T05:52:42.099Z,6.53
2019-02-20T05:55:10.045Z,7.40
2019-02-20T05:57:39.923Z,5.47
2019-02-20T06:00:08.405Z,7.80
2019-02-20T06:02:36.328Z,5.87
2019-02-20T06:05:04.678Z,6.70
2019-02-20T06:07:32.190Z,11.30
2019-02-20T06:10:00.321Z,5.08
2019-02-20T06:12:28.123Z,11.70
2019-02-20T06:14:56.006Z,8.75
2019-02-20T06:17:23.488Z,9.78
2019-02-20T06:19:51.526Z,7.97
2019-02-20T06:22:19.112Z,13.95
2019-02-20T06:24:46.972Z,9.28
2019-02-20T06:27:14.800Z,9.28
2019-02-20T06:29:42.202Z,10.50
2019-02-20T06:32:09.719Z,10.25
2019-02-20T06:34:37.255Z,14.50
2019-02-20T06:37:04.690Z,8.63
2019-02-20T06:39:32.133Z,11.25
2019-02-20T06:41:59.547Z,9.30
2019-02-20T06:44:27.264Z,6.55
2019-02-20T06:46:55.174Z,9.78
2019-02-20T06:49:22.676Z,12.53
2019-02-20T06:51:50.193Z,7.87
2019-02-20T06:54:17.829Z,8.65
2019-02-20T06:56:45.473Z,7.90
2019-02-20T06:59:13.185Z,8.43
2019-02-20T07:01:40.809Z,9.83
2019-02-20T07:04:08.387Z,8.33
2019-02-20T07:07:03.220Z,10.18
2019-02-20T07:10:15.405Z,10.45
2019-02-20T07:13:11.341Z,13.75
2019-02-20T07:16:13.054Z,9.65
2019-02-20T07:19:17.243Z,9.73
2019-02-20T07:22:29.807Z,10.45
2019-02-20T07:25:44.731Z,9.35
2019-02-20T07:28:44.965Z,14.40
2019-02-20T07:31:12.633Z,14.30
2019-02-20T07:33:40.062Z,20.10
2019-02-20T07:36:07.377Z,27.10
2019-02-20T07:38:35.209Z,21.17
2019-02-20T07:41:02.571Z,22.07
2019-02-20T07:43:30.330Z,18.23
2019-02-20T07:45:57.885Z,12.15
2019-02-20T07:48:25.773Z,11.08
2019-02-20T07:50:53.232Z,11.53
2019-02-20T07:53:20.543Z,15.83
2019-02-20T07:55:47.896Z,14.60
2019-02-20T07:58:15.571Z,12.70
2019-02-20T08:00:43.088Z,14.63
2019-02-20T08:03:10.612Z,15.20
2019-02-20T08:05:38.001Z,13.62
2019-02-20T08:08:05.313Z,14.83
2019-02-20T08:10:32.656Z,14.03
2019-02-20T08:13:00.044Z,11.28
2019-02-20T08:15:27.793Z,13.70
2019-02-20T08:17:55.426Z,12.73
2019-02-20T08:20:23.085Z,15.15
2019-02-20T08:22:50.540Z,13.65
2019-02-20T08:25:22.942Z,17.50
2019-02-20T08:27:47.477Z,14.78
2019-02-20T08:30:15.019Z,15.98
2019-02-20T08:32:42.540Z,18.07
2019-02-20T08:35:10.319Z,17.15
2019-02-20T08:37:37.634Z,15.43
2019-02-20T08:40:07.051Z,16.60
2019-02-20T08:42:34.367Z,17.95
2019-02-20T08:45:01.806Z,15.40
2019-02-20T08:47:29.217Z,15.60
2019-02-20T08:49:56.910Z,15.18
2019-02-20T08:52:24.386Z,13.38
2019-02-20T08:54:51.804Z,17.45
2019-02-20T08:57:19.127Z,14.53
2019-02-20T08:59:46.478Z,19.15
2019-02-20T09:02:13.892Z,19.37
2019-02-20T09:04:41.590Z,13.53
2019-02-20T09:07:09.359Z,15.03
2019-02-20T09:09:36.706Z,14.28
2019-02-20T09:12:04.054Z,16.20
2019-02-20T09:14:31.402Z,14.93
2019-02-20T09:16:58.882Z,15.72
2019-02-20T09:19:26.370Z,13.00
2019-02-20T09:21:54.311Z,12.63
2019-02-20T09:24:22.005Z,17.00
2019-02-20T09:26:49.732Z,14.78
2019-02-20T09:29:17.424Z,15.23
2019-02-20T09:31:44.828Z,14.90
2019-02-20T09:34:12.264Z,17.90
2019-02-20T09:36:39.599Z,14.75
2019-02-20T09:39:29.631Z,14.30
2019-02-20T09:41:57.067Z,17.98
2019-02-20T09:44:24.500Z,16.02
2019-02-20T09:46:51.889Z,17.75
2019-02-20T09:49:19.227Z,22.22
2019-02-20T09:51:46.956Z,25.12
2019-02-20T09:54:14.321Z,23.05
2019-02-20T09:56:42.057Z,26.25
2019-02-20T09:59:09.435Z,20.00
2019-02-20T10:01:36.857Z,20.23
2019-02-20T10:04:04.319Z,17.42
2019-02-20T10:06:31.678Z,17.50
2019-02-20T10:08:59.327Z,20.92
2019-02-20T10:11:27.105Z,23.42
2019-02-20T10:13:54.450Z,19.62
2019-02-20T10:16:22.224Z,22.07
2019-02-20T10:18:49.630Z,23.73
2019-02-20T10:21:17.305Z,18.30
2019-02-20T10:23:45.369Z,17.65
2019-02-20T10:26:13.669Z,16.27
2019-02-20T10:28:41.047Z,17.05
2019-02-20T10:31:08.524Z,16.10
2019-02-20T10:33:35.923Z,17.10
2019-02-20T10:36:03.334Z,14.98
2019-02-20T10:38:30.977Z,14.28
2019-02-20T10:40:58.762Z,11.28
2019-02-20T10:43:26.078Z,12.60
2019-02-20T10:45:53.414Z,15.45
2019-02-20T10:48:20.781Z,16.20
2019-02-20T10:50:48.574Z,12.00
2019-02-20T10:53:15.883Z,11.22
2019-02-20T10:55:43.902Z,13.88
2019-02-20T10:58:11.587Z,14.55
2019-02-20T11:00:39.021Z,13.70
2019-02-20T11:03:06.353Z,12.33
2019-02-20T11:05:33.776Z,15.05
2019-02-20T11:08:01.120Z,15.68
2019-02-20T11:10:28.448Z,12.28
2019-02-20T11:12:55.780Z,17.90
2019-02-20T11:15:23.123Z,16.80
2019-02-20T11:17:50.505Z,13.95
2019-02-20T11:20:17.823Z,9.63
2019-02-20T11:22:45.243Z,13.18
2019-02-20T11:25:12.685Z,9.38
2019-02-20T11:27:40.350Z,9.23
2019-02-20T11:30:10.473Z,12.50
2019-02-20T11:32:37.795Z,13.60
2019-02-20T11:35:05.390Z,7.72
2019-02-20T11:37:32.726Z,9.40
2019-02-20T11:40:00.305Z,7.87
2019-02-20T11:42:27.721Z,10.23
2019-02-20T11:44:55.125Z,13.93
2019-02-20T11:47:22.745Z,11.33
2019-02-20T11:49:50.123Z,10.58
2019-02-20T11:52:18.492Z,9.00
2019-02-20T11:54:45.871Z,10.05
2019-02-20T11:57:14.014Z,11.65
2019-02-20T11:59:41.344Z,6.92
2019-02-20T12:02:08.709Z,9.03
2019-02-20T12:04:36.049Z,6.03
2019-02-20T12:07:03.366Z,10.18
2019-02-20T12:09:30.959Z,6.83
2019-02-20T12:11:58.869Z,7.97
2019-02-20T12:14:26.233Z,9.10
2019-02-20T12:16:53.726Z,7.08
2019-02-20T12:19:32.988Z,7.47
2019-02-20T12:22:00.320Z,8.08
2019-02-20T12:24:27.730Z,10.18
2019-02-20T12:26:55.163Z,8.53
2019-02-20T12:29:22.891Z,9.30
2019-02-20T12:31:52.451Z,8.13
2019-02-20T12:34:19.771Z,9.23
2019-02-20T12:36:47.101Z,8.58
2019-02-20T12:39:14.518Z,11.68
2019-02-20T12:41:41.867Z,8.53
2019-02-20T12:44:09.207Z,7.50
2019-02-20T12:46:36.545Z,8.13
2019-02-20T12:49:03.843Z,7.37
2019-02-20T12:51:31.280Z,8.08
2019-02-20T12:53:58.771Z,9.48
2019-02-20T12:56:26.198Z,9.25
2019-02-20T12:58:53.882Z,9.50
2019-02-20T13:01:21.285Z,9.58
2019-02-20T13:03:48.717Z,8.38
2019-02-20T13:06:16.117Z,8.48
2019-02-20T13:08:43.449Z,6.97
2019-02-20T13:11:11.058Z,9.70
2019-02-20T13:13:38.436Z,7.40
2019-02-20T13:16:09.508Z,8.18
2019-02-20T13:18:35.441Z,7.60
2019-02-20T13:21:02.884Z,5.75
2019-02-20T13:23:30.336Z,8.35
2019-02-20T13:25:57.797Z,7.62
2019-02-20T13:28:25.491Z,7.83
2019-02-20T13:30:52.864Z,8.10
2019-02-20T13:33:20.549Z,8.63
2019-02-20T13:35:47.946Z,6.85
2019-02-20T13:38:16.378Z,8.65
2019-02-20T13:40:43.889Z,8.83
2019-02-20T13:43:11.625Z,7.08
2019-02-20T13:45:39.070Z,6.28
2019-02-20T13:48:06.616Z,9.78
2019-02-20T13:50:34.406Z,8.28
2019-02-20T13:53:01.879Z,7.03
2019-02-20T13:55:34.375Z,8.43
2019-02-20T13:57:58.581Z,9.55
2019-02-20T14:00:26.492Z,7.45
2019-02-20T14:02:53.957Z,8.18
2019-02-20T14:05:21.935Z,10.15
2019-02-20T14:07:49.408Z,6.72
2019-02-20T14:10:17.468Z,10.78
2019-02-20T14:12:45.145Z,8.43
2019-02-20T14:15:12.656Z,6.53
2019-02-20T14:17:40.084Z,7.12
2019-02-20T14:20:08.360Z,8.50
2019-02-20T14:22:36.166Z,7.95
2019-02-20T14:25:03.649Z,9.30
2019-02-20T14:27:31.565Z,6.75
2019-02-20T14:29:59.101Z,7.75
2019-02-20T14:32:26.617Z,6.53
2019-02-20T14:34:53.991Z,6.47
2019-02-20T14:37:22.671Z,7.15
2019-02-20T14:39:50.619Z,8.85
2019-02-20T14:42:18.376Z,5.97
2019-02-20T14:44:46.039Z,4.45
2019-02-20T14:47:13.470Z,6.37
2019-02-20T14:49:40.870Z,6.62
2019-02-20T14:52:08.728Z,5.75
2019-02-20T14:54:36.148Z,5.08
2019-02-20T14:57:03.826Z,6.53
2019-02-20T14:59:31.764Z,6.80
2019-02-20T15:02:00.047Z,4.78
2019-02-20T15:04:27.466Z,4.58
2019-02-20T15:06:55.356Z,5.47
2019-02-20T15:09:22.786Z,5.67
2019-02-20T15:11:50.846Z,4.58
2019-02-20T15:14:18.771Z,5.85
2019-02-20T15:16:46.890Z,6.40
2019-02-20T15:19:14.362Z,5.17
2019-02-20T15:21:41.944Z,5.85
2019-02-20T15:24:09.386Z,6.45
2019-02-20T15:26:37.272Z,4.83
2019-02-20T15:29:04.698Z,4.40
2019-02-20T15:31:33.938Z,5.85
2019-02-20T15:34:01.890Z,6.03
2019-02-20T15:36:29.398Z,4.90
2019-02-20T15:38:56.779Z,5.97
2019-02-20T15:41:24.468Z,3.67
2019-02-20T15:43:52.201Z,5.50
2019-02-20T15:46:19.934Z,4.33
2019-02-20T15:48:47.500Z,3.90
2019-02-20T15:51:15.252Z,3.37
2019-02-20T15:53:42.841Z,5.42
2019-02-20T15:56:10.233Z,4.83
2019-02-20T15:58:37.980Z,8.28
2019-02-20T16:01:07.954Z,6.22
2019-02-20T16:03:35.547Z,4.80
2019-02-20T16:06:03.170Z,3.67
2019-02-20T16:08:30.581Z,5.58
2019-02-20T16:10:58.125Z,5.28
2019-02-20T16:13:25.688Z,5.62
2019-02-20T16:15:53.112Z,3.58
2019-02-20T16:18:20.838Z,6.17
2019-02-20T16:20:48.299Z,5.00
2019-02-20T16:23:16.443Z,5.00
2019-02-20T16:25:44.891Z,5.55
2019-02-20T16:28:12.352Z,3.12
2019-02-20T16:30:39.896Z,3.90
2019-02-20T16:33:07.907Z,5.85
2019-02-20T16:35:35.690Z,5.12
2019-02-20T16:38:03.189Z,4.08
2019-02-20T16:40:30.960Z,3.50
2019-02-20T16:42:58.563Z,5.72
2019-02-20T16:45:25.990Z,5.08
2019-02-20T16:47:53.697Z,4.22
2019-02-20T16:50:21.124Z,4.67
2019-02-20T16:52:48.541Z,6.35
2019-02-20T16:55:19.149Z,4.40
2019-02-20T16:57:45.475Z,4.25
2019-02-20T17:00:13.580Z,6.22
2019-02-20T17:02:41.617Z,4.15
2019-02-20T17:05:13.088Z,5.85
2019-02-20T17:07:40.306Z,5.60
2019-02-20T17:10:08.666Z,4.55
2019-02-20T17:12:36.125Z,4.17
2019-02-20T17:15:03.931Z,5.20
2019-02-20T17:17:31.877Z,5.75
2019-02-20T17:19:59.930Z,5.85
2019-02-20T17:22:27.863Z,5.05
2019-02-20T17:24:55.574Z,4.17
2019-02-20T17:27:23.070Z,7.15
2019-02-20T17:29:50.506Z,4.08
2019-02-20T17:32:18.233Z,5.97
2019-02-20T17:34:45.921Z,4.40
2019-02-20T17:37:13.586Z,5.95
2019-02-20T17:39:41.561Z,4.70
2019-02-20T17:42:08.961Z,3.08
2019-02-20T17:44:36.450Z,6.17
2019-02-20T17:47:03.880Z,3.35
2019-02-20T17:49:31.483Z,4.47
2019-02-20T17:51:59.152Z,4.53
2019-02-20T17:54:26.878Z,5.97
2019-02-20T17:56:54.691Z,7.08
2019-02-20T17:59:22.024Z,5.10
2019-02-20T18:01:50.043Z,4.67
2019-02-20T18:04:17.705Z,5.55
2019-02-20T18:06:45.484Z,6.92
2019-02-20T18:09:13.128Z,5.28
2019-02-20T18:11:40.494Z,6.45
2019-02-20T18:14:09.782Z,5.67
2019-02-20T18:16:37.806Z,4.97
2019-02-20T18:19:05.500Z,4.62
2019-02-20T18:21:33.066Z,4.80
2019-02-20T18:24:00.509Z,4.15
2019-02-20T18:26:27.833Z,7.62
2019-02-20T18:28:55.290Z,4.50
2019-02-20T18:31:22.790Z,6.47
2019-02-20T18:33:50.502Z,5.50
2019-02-20T18:36:18.273Z,6.58
2019-02-20T18:38:45.664Z,5.40
2019-02-20T18:41:14.506Z,4.45
2019-02-20T18:43:42.754Z,6.90
2019-02-20T18:46:10.173Z,5.83
2019-02-20T18:48:37.619Z,7.83
2019-02-20T18:51:05.199Z,8.25
2019-02-20T18:53:32.978Z,4.72
2019-02-20T18:56:01.295Z,5.70
2019-02-20T18:58:34.018Z,7.47
2019-02-20T19:00:57.967Z,8.20
2019-02-20T19:03:25.394Z,6.92
2019-02-20T19:05:53.130Z,7.20
2019-02-20T19:08:42.124Z,5.80
2019-02-20T19:11:20.037Z,7.20
2019-02-20T19:14:12.574Z,6.65
2019-02-20T19:17:09.405Z,5.35
2019-02-20T19:20:08.340Z,10.20
2019-02-20T19:23:03.168Z,8.85
2019-02-20T19:25:59.511Z,7.22
2019-02-20T19:29:08.869Z,6.85
2019-02-20T19:32:32.564Z,8.45
2019-02-20T19:35:31.934Z,8.23
2019-02-20T19:38:44.361Z,7.05
2019-02-20T19:41:36.626Z,7.05
2019-02-20T19:44:36.582Z,7.37
2019-02-20T19:47:41.147Z,7.60
2019-02-20T19:50:43.972Z,8.78
2019-02-20T19:53:51.256Z,8.60
2019-02-20T19:57:06.707Z,6.50
2019-02-20T20:00:25.295Z,6.58
2019-02-20T20:03:43.677Z,6.53
2019-02-20T20:06:36.738Z,5.97
2019-02-20T20:09:35.846Z,5.83
2019-02-20T20:12:24.221Z,7.60
2019-02-20T20:15:36.833Z,8.70
2019-02-20T20:18:43.926Z,5.35
2019-02-20T20:21:48.909Z,5.62
2019-02-20T20:25:10.800Z,6.62
2019-02-20T20:27:54.520Z,8.45
2019-02-20T20:30:57.460Z,6.53
2019-02-20T20:34:17.403Z,5.42
2019-02-20T20:37:47.931Z,6.35
2019-02-20T20:41:09.270Z,6.15
2019-02-20T20:44:01.715Z,4.70
2019-02-20T20:46:50.068Z,5.97
2019-02-20T20:49:28.843Z,6.17
2019-02-20T20:52:44.383Z,9.45
2019-02-20T20:55:48.712Z,7.22
2019-02-20T20:59:16.949Z,7.55
2019-02-20T21:02:24.609Z,6.70
2019-02-20T21:05:37.182Z,8.95
2019-02-20T21:08:29.158Z,5.33
2019-02-20T21:11:21.181Z,5.62
2019-02-20T21:14:18.491Z,5.53
2019-02-20T21:17:22.201Z,7.55
2019-02-20T21:20:46.816Z,6.22
2019-02-20T21:23:35.256Z,8.08
2019-02-20T21:26:53.327Z,16.95
2019-02-20T21:29:43.873Z,19.42
2019-02-20T21:32:39.325Z,13.18
2019-02-20T21:35:18.457Z,16.52
2019-02-20T21:38:25.273Z,10.60
2019-02-20T21:41:24.114Z,9.70
2019-02-20T21:44:11.209Z,10.20
2019-02-20T21:47:31.240Z,11.53
2019-02-20T21:50:36.993Z,9.78
2019-02-20T21:54:07.411Z,6.00
2019-02-20T21:57:06.764Z,10.48
2019-02-20T21:59:48.467Z,11.10
2019-02-20T22:02:40.647Z,9.00
2019-02-20T22:05:41.613Z,9.28
2019-02-20T22:08:52.957Z,7.28
2019-02-20T22:11:55.973Z,10.03
2019-02-20T22:14:54.620Z,10.60
2019-02-20T22:17:52.651Z,8.05
2019-02-20T22:21:03.814Z,10.00
2019-02-20T22:24:08.394Z,8.00
2019-02-20T22:27:20.307Z,8.58
2019-02-20T22:30:44.191Z,6.47
2019-02-20T22:33:54.719Z,9.53
2019-02-20T22:37:07.269Z,9.80
2019-02-20T22:39:57.667Z,9.83
2019-02-20T22:43:25.124Z,9.90
2019-02-20T22:46:00.626Z,11.65
2019-02-20T22:48:50.209Z,8.90
2019-02-20T22:52:10.038Z,9.33
2019-02-20T22:55:28.604Z,11.05
2019-02-20T22:58:12.216Z,13.78
2019-02-20T23:01:17.633Z,20.40
2019-02-20T23:03:57.322Z,21.50
2019-02-20T23:07:24.222Z,20.60
2019-02-20T23:10:22.973Z,15.85
2019-02-20T23:13:02.626Z,13.60
2019-02-20T23:15:30.038Z,14.40
2019-02-20T23:17:57.402Z,19.25
2019-02-20T23:20:25.121Z,18.48
2019-02-20T23:22:52.582Z,16.32
2019-02-20T23:25:20.164Z,17.80
2019-02-20T23:27:47.626Z,15.88
2019-02-20T23:30:15.032Z,18.12
2019-02-20T23:32:43.372Z,13.30
2019-02-20T23:35:11.171Z,16.00
2019-02-20T23:37:38.540Z,11.97
2019-02-20T23:40:06.933Z,15.00
2019-02-20T23:42:34.914Z,13.22
2019-02-20T23:45:02.569Z,11.70
2019-02-20T23:47:29.906Z,14.40
2019-02-20T23:49:57.324Z,15.10
2019-02-20T23:52:24.717Z,17.60
2019-02-20T23:54:52.100Z,16.60
2019-02-20T23:57:19.498Z,11.33
2019-02-20T23:59:47.231Z,13.30
